createdAt,value
2017-11-03T00:00:04.920Z,928.41
2017-11-03T00:00:23.228Z,928.4
2017-11-03T00:00:42.664Z,928.42
2017-11-03T00:01:00.968Z,928.34
2017-11-03T00:01:19.300Z,928.41
2017-11-03T00:01:38.132Z,928.42
2017-11-03T00:01:56.978Z,928.41
2017-11-03T00:02:15.827Z,928.37
2017-11-03T00:02:34.136Z,928.38
2017-11-03T00:02:53.531Z,928.4
2017-11-03T00:03:12.369Z,928.4
2017-11-03T00:03:31.733Z,928.41
2017-11-03T00:03:50.596Z,928.37
2017-11-03T00:04:10.040Z,928.38
2017-11-03T00:04:29.541Z,928.35
2017-11-03T00:04:49.122Z,928.4
2017-11-03T00:05:07.965Z,928.37
2017-11-03T00:05:26.290Z,928.37
2017-11-03T00:05:45.129Z,928.38
2017-11-03T00:06:04.518Z,928.42
2017-11-03T00:06:23.885Z,928.44
2017-11-03T00:06:42.806Z,928.4
2017-11-03T00:07:01.628Z,928.41
2017-11-03T00:07:21.180Z,928.41
2017-11-03T00:07:39.469Z,928.39
2017-11-03T00:07:57.780Z,928.38
2017-11-03T00:08:16.644Z,928.41
2017-11-03T00:08:35.514Z,928.43
2017-11-03T00:08:54.906Z,928.38
2017-11-03T00:09:14.328Z,928.38
2017-11-03T00:09:33.894Z,928.37
2017-11-03T00:09:52.190Z,928.37
2017-11-03T00:10:10.507Z,928.39
2017-11-03T00:10:29.925Z,928.4
2017-11-03T00:10:48.798Z,928.41
2017-11-03T00:11:07.141Z,928.43
2017-11-03T00:11:26.536Z,928.42
2017-11-03T00:11:45.549Z,928.43
2017-11-03T00:12:04.388Z,928.42
2017-11-03T00:12:23.237Z,928.42
2017-11-03T00:12:42.080Z,928.41
2017-11-03T00:12:59.336Z,928.42
2017-11-03T00:13:17.706Z,928.44
2017-11-03T00:13:36.557Z,928.41
2017-11-03T00:13:55.938Z,928.41
2017-11-03T00:14:15.347Z,928.4
2017-11-03T00:14:34.742Z,928.45
2017-11-03T00:14:54.154Z,928.45
2017-11-03T00:15:13.621Z,928.45
2017-11-03T00:15:32.465Z,928.42
2017-11-03T00:15:51.874Z,928.46
2017-11-03T00:16:09.110Z,928.44
2017-11-03T00:16:28.513Z,928.49
2017-11-03T00:16:47.339Z,928.43
2017-11-03T00:17:06.204Z,928.47
2017-11-03T00:17:25.097Z,928.48
2017-11-03T00:17:43.428Z,928.42
2017-11-03T00:18:02.806Z,928.42
2017-11-03T00:18:22.224Z,928.47
2017-11-03T00:18:40.540Z,928.42
2017-11-03T00:18:59.936Z,928.45
2017-11-03T00:19:18.794Z,928.46
2017-11-03T00:19:37.635Z,928.47
2017-11-03T00:19:57.040Z,928.48
2017-11-03T00:20:14.809Z,928.52
2017-11-03T00:20:34.211Z,928.47
2017-11-03T00:20:53.070Z,928.49
2017-11-03T00:21:11.941Z,928.51
2017-11-03T00:21:31.444Z,928.52
2017-11-03T00:21:49.765Z,928.53
2017-11-03T00:22:08.084Z,928.53
2017-11-03T00:22:26.927Z,928.5
2017-11-03T00:22:46.335Z,928.5
2017-11-03T00:23:04.795Z,928.49
2017-11-03T00:23:22.827Z,928.51
2017-11-03T00:23:41.326Z,928.49
2017-11-03T00:24:00.224Z,928.49
2017-11-03T00:24:19.173Z,928.52
2017-11-03T00:24:37.558Z,928.52
2017-11-03T00:24:56.965Z,928.57
2017-11-03T00:25:16.383Z,928.58
2017-11-03T00:25:34.687Z,928.58
2017-11-03T00:25:53.550Z,928.55
2017-11-03T00:26:12.599Z,928.53
2017-11-03T00:26:31.584Z,928.53
2017-11-03T00:26:50.490Z,928.55
2017-11-03T00:27:10.005Z,928.54
2017-11-03T00:27:28.372Z,928.57
2017-11-03T00:27:46.679Z,928.61
2017-11-03T00:28:06.103Z,928.57
2017-11-03T00:28:25.486Z,928.58
2017-11-03T00:28:44.367Z,928.57
2017-11-03T00:29:03.780Z,928.6
2017-11-03T00:29:22.080Z,928.55
2017-11-03T00:29:40.453Z,928.57
2017-11-03T00:29:59.390Z,928.57
2017-11-03T00:30:18.798Z,928.62
2017-11-03T00:30:37.666Z,928.61
2017-11-03T00:30:56.640Z,928.61
2017-11-03T00:31:16.013Z,928.61
2017-11-03T00:31:34.840Z,928.57
2017-11-03T00:31:53.162Z,928.63
2017-11-03T00:32:12.618Z,928.6
2017-11-03T00:32:30.987Z,928.59
2017-11-03T00:32:50.498Z,928.59
2017-11-03T00:33:10.047Z,928.64
2017-11-03T00:33:29.003Z,928.65
2017-11-03T00:33:47.323Z,928.62
2017-11-03T00:34:06.717Z,928.58
2017-11-03T00:34:25.035Z,928.59
2017-11-03T00:34:43.397Z,928.61
2017-11-03T00:35:02.767Z,928.63
2017-11-03T00:35:23.037Z,928.64
2017-11-03T00:35:42.669Z,928.61
2017-11-03T00:36:02.798Z,928.61
2017-11-03T00:36:22.793Z,928.59
2017-11-03T00:36:40.966Z,928.59
2017-11-03T00:37:00.228Z,928.57
2017-11-03T00:37:18.650Z,928.59
2017-11-03T00:37:38.244Z,928.6
2017-11-03T00:37:57.121Z,928.6
2017-11-03T00:38:15.457Z,928.57
2017-11-03T00:38:34.861Z,928.59
2017-11-03T00:38:53.715Z,928.59
2017-11-03T00:39:12.606Z,928.54
2017-11-03T00:39:31.972Z,928.59
2017-11-03T00:39:50.816Z,928.55
2017-11-03T00:40:09.673Z,928.58
2017-11-03T00:40:28.550Z,928.55
2017-11-03T00:40:47.385Z,928.55
2017-11-03T00:41:06.755Z,928.51
2017-11-03T00:41:26.215Z,928.55
2017-11-03T00:41:45.637Z,928.54
2017-11-03T00:42:05.309Z,928.6
2017-11-03T00:42:25.240Z,928.58
2017-11-03T00:42:45.370Z,928.56
2017-11-03T00:43:04.814Z,928.6
2017-11-03T00:43:24.443Z,928.58
2017-11-03T00:43:43.953Z,928.56
2017-11-03T00:44:02.556Z,928.63
2017-11-03T00:44:21.796Z,928.62
2017-11-03T00:44:41.719Z,928.61
2017-11-03T00:45:01.480Z,928.6
2017-11-03T00:45:21.519Z,928.62
2017-11-03T00:45:40.522Z,928.65
2017-11-03T00:45:58.984Z,928.6
2017-11-03T00:46:16.215Z,928.61
2017-11-03T00:46:35.620Z,928.62
2017-11-03T00:46:54.501Z,928.64
2017-11-03T00:47:13.802Z,928.67
2017-11-03T00:47:33.272Z,928.66
2017-11-03T00:47:52.944Z,928.62
2017-11-03T00:48:11.697Z,928.66
2017-11-03T00:48:31.124Z,928.63
2017-11-03T00:48:50.649Z,928.66
2017-11-03T00:49:09.528Z,928.66
2017-11-03T00:49:28.922Z,928.63
2017-11-03T00:49:48.338Z,928.64
2017-11-03T00:50:07.761Z,928.67
2017-11-03T00:50:26.958Z,928.66
2017-11-03T00:50:45.325Z,928.67
2017-11-03T00:51:03.879Z,928.64
2017-11-03T00:51:22.286Z,928.68
2017-11-03T00:51:41.316Z,928.66
2017-11-03T00:52:00.704Z,928.62
2017-11-03T00:52:19.559Z,928.67
2017-11-03T00:52:39.445Z,928.61
2017-11-03T00:52:59.019Z,928.59
2017-11-03T00:53:18.119Z,928.62
2017-11-03T00:53:37.519Z,928.61
2017-11-03T00:53:56.925Z,928.58
2017-11-03T00:54:15.822Z,928.59
2017-11-03T00:54:34.713Z,928.58
2017-11-03T00:54:53.058Z,928.62
2017-11-03T00:55:11.918Z,928.63
2017-11-03T00:55:30.762Z,928.6
2017-11-03T00:55:49.070Z,928.6
2017-11-03T00:56:07.910Z,928.61
2017-11-03T00:56:26.941Z,928.61
2017-11-03T00:56:46.019Z,928.61
2017-11-03T00:57:05.575Z,928.66
2017-11-03T00:57:24.560Z,928.62
2017-11-03T00:57:43.962Z,928.62
2017-11-03T00:58:03.588Z,928.59
2017-11-03T00:58:23.147Z,928.63
2017-11-03T00:58:43.554Z,928.63
2017-11-03T00:59:02.751Z,928.6
2017-11-03T00:59:21.289Z,928.59
2017-11-03T00:59:41.463Z,928.57
2017-11-03T01:00:00.468Z,928.6
2017-11-03T01:00:19.596Z,928.59
2017-11-03T01:00:38.926Z,928.59
2017-11-03T01:00:57.879Z,928.54
2017-11-03T01:01:17.262Z,928.58
2017-11-03T01:01:35.923Z,928.57
2017-11-03T01:01:55.742Z,928.58
2017-11-03T01:02:14.718Z,928.59
2017-11-03T01:02:33.587Z,928.56
2017-11-03T01:02:53.028Z,928.59
2017-11-03T01:03:12.546Z,928.57
2017-11-03T01:03:31.994Z,928.59
2017-11-03T01:03:51.404Z,928.56
2017-11-03T01:04:10.966Z,928.57
2017-11-03T01:04:30.372Z,928.59
2017-11-03T01:04:49.788Z,928.58
2017-11-03T01:05:08.148Z,928.58
2017-11-03T01:05:27.272Z,928.57
2017-11-03T01:05:46.175Z,928.56
2017-11-03T01:06:05.024Z,928.57
2017-11-03T01:06:24.389Z,928.59
2017-11-03T01:06:42.692Z,928.57
2017-11-03T01:07:01.570Z,928.6
2017-11-03T01:07:20.563Z,928.56
2017-11-03T01:07:39.473Z,928.57
2017-11-03T01:07:58.873Z,928.58
2017-11-03T01:08:17.708Z,928.58
2017-11-03T01:08:36.542Z,928.6
2017-11-03T01:08:55.948Z,928.58
2017-11-03T01:09:14.809Z,928.59
2017-11-03T01:09:33.667Z,928.58
2017-11-03T01:09:52.521Z,928.6
2017-11-03T01:10:10.830Z,928.58
2017-11-03T01:10:29.149Z,928.6
2017-11-03T01:10:48.571Z,928.59
2017-11-03T01:11:07.978Z,928.57
2017-11-03T01:11:26.845Z,928.55
2017-11-03T01:11:45.763Z,928.57
2017-11-03T01:12:04.110Z,928.54
2017-11-03T01:12:22.982Z,928.51
2017-11-03T01:12:42.473Z,928.52
2017-11-03T01:13:01.887Z,928.54
2017-11-03T01:13:20.758Z,928.55
2017-11-03T01:13:39.100Z,928.53
2017-11-03T01:13:58.479Z,928.52
2017-11-03T01:14:17.377Z,928.5
2017-11-03T01:14:35.766Z,928.5
2017-11-03T01:14:54.640Z,928.52
2017-11-03T01:15:13.475Z,928.54
2017-11-03T01:15:32.881Z,928.53
2017-11-03T01:15:52.321Z,928.54
2017-11-03T01:16:11.218Z,928.5
2017-11-03T01:16:29.566Z,928.46
2017-11-03T01:16:48.413Z,928.51
2017-11-03T01:17:07.804Z,928.52
2017-11-03T01:17:27.223Z,928.5
2017-11-03T01:17:46.846Z,928.53
2017-11-03T01:18:06.474Z,928.5
2017-11-03T01:18:26.017Z,928.46
2017-11-03T01:18:44.898Z,928.48
2017-11-03T01:19:03.792Z,928.46
2017-11-03T01:19:21.607Z,928.46
2017-11-03T01:19:40.466Z,928.44
2017-11-03T01:19:59.883Z,928.45
2017-11-03T01:20:17.662Z,928.46
2017-11-03T01:20:35.963Z,928.46
2017-11-03T01:20:54.248Z,928.45
2017-11-03T01:21:13.647Z,928.37
2017-11-03T01:21:32.786Z,928.41
2017-11-03T01:21:51.925Z,928.44
2017-11-03T01:22:10.855Z,928.4
2017-11-03T01:22:28.218Z,928.41
2017-11-03T01:22:47.149Z,928.39
2017-11-03T01:23:06.535Z,928.44
2017-11-03T01:23:25.387Z,928.4
2017-11-03T01:23:43.669Z,928.39
2017-11-03T01:24:01.968Z,928.4
2017-11-03T01:24:20.851Z,928.43
2017-11-03T01:24:40.302Z,928.46
2017-11-03T01:24:59.733Z,928.5
2017-11-03T01:25:19.113Z,928.52
2017-11-03T01:25:38.515Z,928.49
2017-11-03T01:25:57.357Z,928.48
2017-11-03T01:26:16.241Z,928.44
2017-11-03T01:26:34.032Z,928.48
2017-11-03T01:26:53.457Z,928.5
2017-11-03T01:27:12.863Z,928.52
2017-11-03T01:27:31.704Z,928.48
2017-11-03T01:27:50.561Z,928.44
2017-11-03T01:28:09.412Z,928.47
2017-11-03T01:28:27.732Z,928.47
2017-11-03T01:28:46.573Z,928.48
2017-11-03T01:29:05.650Z,928.5
2017-11-03T01:29:24.520Z,928.52
2017-11-03T01:29:43.891Z,928.5
2017-11-03T01:30:03.297Z,928.5
2017-11-03T01:30:22.668Z,928.53
2017-11-03T01:30:41.504Z,928.53
2017-11-03T01:31:00.882Z,928.54
2017-11-03T01:31:19.766Z,928.53
2017-11-03T01:31:38.597Z,928.54
2017-11-03T01:31:57.979Z,928.52
2017-11-03T01:32:16.809Z,928.49
2017-11-03T01:32:35.106Z,928.5
2017-11-03T01:32:53.977Z,928.47
2017-11-03T01:33:13.376Z,928.5
2017-11-03T01:33:32.762Z,928.48
2017-11-03T01:33:52.185Z,928.46
2017-11-03T01:34:11.601Z,928.42
2017-11-03T01:34:30.455Z,928.46
2017-11-03T01:34:48.766Z,928.41
2017-11-03T01:35:07.632Z,928.41
2017-11-03T01:35:26.496Z,928.38
2017-11-03T01:35:45.896Z,928.36
2017-11-03T01:36:05.280Z,928.36
2017-11-03T01:36:23.604Z,928.35
2017-11-03T01:36:41.463Z,928.34
2017-11-03T01:37:00.868Z,928.35
2017-11-03T01:37:19.728Z,928.34
2017-11-03T01:37:39.153Z,928.35
2017-11-03T01:37:58.027Z,928.29
2017-11-03T01:38:17.434Z,928.32
2017-11-03T01:38:36.293Z,928.27
2017-11-03T01:38:55.172Z,928.29
2017-11-03T01:39:13.530Z,928.26
2017-11-03T01:39:31.840Z,928.27
2017-11-03T01:39:51.252Z,928.26
2017-11-03T01:40:09.571Z,928.27
2017-11-03T01:40:28.458Z,928.27
2017-11-03T01:40:47.861Z,928.24
2017-11-03T01:41:06.740Z,928.24
2017-11-03T01:41:25.852Z,928.23
2017-11-03T01:41:44.695Z,928.23
2017-11-03T01:42:03.759Z,928.23
2017-11-03T01:42:22.619Z,928.24
2017-11-03T01:42:42.112Z,928.25
2017-11-03T01:43:01.485Z,928.25
2017-11-03T01:43:21.009Z,928.28
2017-11-03T01:43:39.984Z,928.23
2017-11-03T01:43:59.611Z,928.25
2017-11-03T01:44:18.083Z,928.26
2017-11-03T01:44:37.465Z,928.23
2017-11-03T01:44:56.381Z,928.25
2017-11-03T01:45:15.197Z,928.24
2017-11-03T01:45:33.003Z,928.22
2017-11-03T01:45:50.802Z,928.24
2017-11-03T01:46:10.191Z,928.26
2017-11-03T01:46:29.781Z,928.24
2017-11-03T01:46:48.736Z,928.22
2017-11-03T01:47:07.832Z,928.2
2017-11-03T01:47:27.322Z,928.19
2017-11-03T01:47:46.798Z,928.2
2017-11-03T01:48:06.329Z,928.18
2017-11-03T01:48:25.841Z,928.22
2017-11-03T01:48:45.485Z,928.2
2017-11-03T01:49:04.460Z,928.2
2017-11-03T01:49:23.937Z,928.21
2017-11-03T01:49:43.395Z,928.17
2017-11-03T01:50:02.253Z,928.2
2017-11-03T01:50:21.626Z,928.2
2017-11-03T01:50:41.213Z,928.2
2017-11-03T01:50:59.671Z,928.19
2017-11-03T01:51:18.520Z,928.22
2017-11-03T01:51:37.020Z,928.17
2017-11-03T01:51:54.650Z,928.2
2017-11-03T01:52:14.125Z,928.21
2017-11-03T01:52:32.446Z,928.21
2017-11-03T01:52:51.392Z,928.22
2017-11-03T01:53:10.782Z,928.21
2017-11-03T01:53:29.645Z,928.15
2017-11-03T01:53:48.486Z,928.16
2017-11-03T01:54:07.423Z,928.23
2017-11-03T01:54:26.840Z,928.21
2017-11-03T01:54:45.678Z,928.17
2017-11-03T01:55:04.564Z,928.2
2017-11-03T01:55:22.867Z,928.18
2017-11-03T01:55:41.733Z,928.21
2017-11-03T01:56:00.065Z,928.2
2017-11-03T01:56:18.383Z,928.2
2017-11-03T01:56:36.752Z,928.22
2017-11-03T01:56:56.161Z,928.17
2017-11-03T01:57:14.993Z,928.17
2017-11-03T01:57:34.417Z,928.22
2017-11-03T01:57:53.801Z,928.24
2017-11-03T01:58:12.637Z,928.21
2017-11-03T01:58:32.010Z,928.24
2017-11-03T01:58:50.873Z,928.23
2017-11-03T01:59:09.758Z,928.24
2017-11-03T01:59:29.174Z,928.2
2017-11-03T01:59:48.564Z,928.23
2017-11-03T02:00:07.976Z,928.23
2017-11-03T02:00:26.813Z,928.23
2017-11-03T02:00:45.122Z,928.2
2017-11-03T02:01:04.567Z,928.2
2017-11-03T02:01:23.943Z,928.2
2017-11-03T02:01:41.725Z,928.19
2017-11-03T02:02:00.011Z,928.21
2017-11-03T02:02:19.375Z,928.18
2017-11-03T02:02:37.681Z,928.23
2017-11-03T02:02:56.022Z,928.17
2017-11-03T02:03:14.328Z,928.16
2017-11-03T02:03:33.751Z,928.15
2017-11-03T02:03:53.155Z,928.14
2017-11-03T02:04:12.540Z,928.11
2017-11-03T02:04:31.376Z,928.16
2017-11-03T02:04:49.700Z,928.16
2017-11-03T02:05:08.520Z,928.16
2017-11-03T02:05:27.413Z,928.15
2017-11-03T02:05:46.824Z,928.12
2017-11-03T02:06:06.210Z,928.12
2017-11-03T02:06:24.539Z,928.13
2017-11-03T02:06:43.982Z,928.12
2017-11-03T02:07:02.810Z,928.18
2017-11-03T02:07:21.661Z,928.13
2017-11-03T02:07:41.063Z,928.15
2017-11-03T02:08:00.457Z,928.15
2017-11-03T02:08:19.313Z,928.15
2017-11-03T02:08:38.797Z,928.16
2017-11-03T02:08:57.767Z,928.12
2017-11-03T02:09:16.090Z,928.13
2017-11-03T02:09:35.467Z,928.15
2017-11-03T02:09:54.991Z,928.11
2017-11-03T02:10:14.029Z,928.14
2017-11-03T02:10:31.830Z,928.11
2017-11-03T02:10:51.241Z,928.09
2017-11-03T02:11:10.659Z,928.11
2017-11-03T02:11:29.741Z,928.1
2017-11-03T02:11:48.634Z,928.12
2017-11-03T02:12:08.175Z,928.13
2017-11-03T02:12:27.554Z,928.1
2017-11-03T02:12:45.838Z,928.08
2017-11-03T02:13:04.126Z,928.1
2017-11-03T02:13:23.525Z,928.07
2017-11-03T02:13:42.380Z,928.06
2017-11-03T02:14:01.770Z,928.05
2017-11-03T02:14:20.069Z,928.07
2017-11-03T02:14:38.422Z,928.07
2017-11-03T02:14:57.278Z,928.1
2017-11-03T02:15:16.689Z,928.08
2017-11-03T02:15:36.102Z,928.09
2017-11-03T02:15:55.504Z,928.11
2017-11-03T02:16:15.111Z,928.12
2017-11-03T02:16:34.481Z,928.08
2017-11-03T02:16:53.909Z,928.09
2017-11-03T02:17:12.857Z,928.12
2017-11-03T02:17:31.710Z,928.08
2017-11-03T02:17:50.086Z,928.07
2017-11-03T02:18:08.911Z,928.07
2017-11-03T02:18:27.759Z,928.06
2017-11-03T02:18:47.188Z,928.1
2017-11-03T02:19:06.029Z,928.1
2017-11-03T02:19:24.902Z,928.07
2017-11-03T02:19:43.859Z,928.09
2017-11-03T02:20:02.865Z,928.11
2017-11-03T02:20:22.377Z,928.07
2017-11-03T02:20:40.685Z,928.08
2017-11-03T02:21:00.357Z,928.07
2017-11-03T02:21:18.730Z,928.1
2017-11-03T02:21:37.751Z,928.1
2017-11-03T02:21:57.123Z,928.12
2017-11-03T02:22:16.585Z,928.07
2017-11-03T02:22:35.689Z,928.09
2017-11-03T02:22:54.537Z,928.11
2017-11-03T02:23:13.005Z,928.09
2017-11-03T02:23:32.017Z,928.11
2017-11-03T02:23:50.656Z,928.17
2017-11-03T02:24:09.041Z,928.1
2017-11-03T02:24:27.871Z,928.13
2017-11-03T02:24:47.251Z,928.13
2017-11-03T02:25:06.696Z,928.1
2017-11-03T02:25:25.047Z,928.09
2017-11-03T02:25:42.837Z,928.12
2017-11-03T02:26:02.194Z,928.1
2017-11-03T02:26:20.155Z,928.09
2017-11-03T02:26:39.666Z,928.08
2017-11-03T02:26:58.615Z,928.05
2017-11-03T02:27:17.585Z,928.06
2017-11-03T02:27:36.631Z,928.07
2017-11-03T02:27:56.107Z,928.03
2017-11-03T02:28:13.879Z,928.06
2017-11-03T02:28:32.752Z,928.02
2017-11-03T02:28:51.610Z,928.02
2017-11-03T02:29:10.475Z,928.04
2017-11-03T02:29:28.809Z,928.02
2017-11-03T02:29:47.642Z,928.03
2017-11-03T02:30:07.036Z,928.02
2017-11-03T02:30:26.154Z,928.03
2017-11-03T02:30:45.012Z,928.03
2017-11-03T02:31:03.891Z,928.04
2017-11-03T02:31:23.331Z,928.04
2017-11-03T02:31:42.987Z,928.02
2017-11-03T02:32:01.846Z,928.06
2017-11-03T02:32:21.230Z,928.01
2017-11-03T02:32:40.648Z,928.01
2017-11-03T02:33:00.036Z,928.09
2017-11-03T02:33:18.931Z,928.06
2017-11-03T02:33:37.801Z,928.03
2017-11-03T02:33:56.109Z,928.05
2017-11-03T02:34:14.435Z,928.06
2017-11-03T02:34:33.839Z,928.06
2017-11-03T02:34:52.696Z,928.08
2017-11-03T02:35:11.880Z,928.08
2017-11-03T02:35:31.857Z,928.05
2017-11-03T02:35:52.086Z,928.05
2017-11-03T02:36:10.980Z,928.05
2017-11-03T02:36:30.377Z,928.07
2017-11-03T02:36:48.142Z,928.05
2017-11-03T02:37:06.999Z,928.06
2017-11-03T02:37:25.303Z,928.05
2017-11-03T02:37:44.170Z,928.06
2017-11-03T02:38:03.216Z,928.04
2017-11-03T02:38:22.050Z,928.06
2017-11-03T02:38:40.910Z,928.08
2017-11-03T02:38:59.790Z,928.04
2017-11-03T02:39:19.164Z,928.06
2017-11-03T02:39:38.021Z,928.03
2017-11-03T02:39:57.408Z,928.03
2017-11-03T02:40:16.797Z,928.05
2017-11-03T02:40:35.666Z,928.05
2017-11-03T02:40:55.039Z,928.04
2017-11-03T02:41:14.407Z,928.06
2017-11-03T02:41:33.591Z,928.08
2017-11-03T02:41:52.441Z,928.09
2017-11-03T02:42:09.666Z,928.09
2017-11-03T02:42:29.061Z,928.09
2017-11-03T02:42:47.917Z,928.1
2017-11-03T02:43:07.279Z,928.1
2017-11-03T02:43:25.598Z,928.07
2017-11-03T02:43:44.460Z,928.08
2017-11-03T02:44:02.281Z,928.09
2017-11-03T02:44:20.611Z,928.09
2017-11-03T02:44:39.521Z,928.09
2017-11-03T02:44:57.831Z,928.1
2017-11-03T02:45:17.221Z,928.08
2017-11-03T02:45:36.128Z,928.11
2017-11-03T02:45:54.487Z,928.1
2017-11-03T02:46:13.388Z,928.1
2017-11-03T02:46:32.796Z,928.11
2017-11-03T02:46:51.682Z,928.09
2017-11-03T02:47:10.572Z,928.05
2017-11-03T02:47:29.977Z,928.07
2017-11-03T02:47:49.398Z,928.09
2017-11-03T02:48:08.291Z,928.03
2017-11-03T02:48:27.794Z,928.04
2017-11-03T02:48:47.282Z,928.06
2017-11-03T02:49:06.774Z,928.03
2017-11-03T02:49:25.857Z,928.03
2017-11-03T02:49:44.762Z,928.1
2017-11-03T02:50:04.139Z,928.03
2017-11-03T02:50:22.503Z,928.03
2017-11-03T02:50:41.609Z,928.04
2017-11-03T02:51:00.677Z,928.04
2017-11-03T02:51:20.100Z,928.04
2017-11-03T02:51:39.548Z,928
2017-11-03T02:51:58.401Z,928
2017-11-03T02:52:16.733Z,927.96
2017-11-03T02:52:35.796Z,927.98
2017-11-03T02:52:55.199Z,927.98
2017-11-03T02:53:14.059Z,927.93
2017-11-03T02:53:33.662Z,927.94
2017-11-03T02:53:53.069Z,927.95
2017-11-03T02:54:12.452Z,927.98
2017-11-03T02:54:30.792Z,927.97
2017-11-03T02:54:49.635Z,927.95
2017-11-03T02:55:08.495Z,927.98
2017-11-03T02:55:26.810Z,928.01
2017-11-03T02:55:45.626Z,927.98
2017-11-03T02:56:04.980Z,927.98
2017-11-03T02:56:24.570Z,927.98
2017-11-03T02:56:42.900Z,928.01
2017-11-03T02:57:01.773Z,927.98
2017-11-03T02:57:20.669Z,928.04
2017-11-03T02:57:40.476Z,928.01
2017-11-03T02:58:00.246Z,928.05
2017-11-03T02:58:20.394Z,928.06
2017-11-03T02:58:40.133Z,928.08
2017-11-03T02:58:59.348Z,928.06
2017-11-03T02:59:18.549Z,928.07
2017-11-03T02:59:37.866Z,928.07
2017-11-03T02:59:56.393Z,928.06
2017-11-03T03:00:15.270Z,928.07
2017-11-03T03:00:33.577Z,928.08
2017-11-03T03:00:52.432Z,928.05
2017-11-03T03:01:11.294Z,928.03
2017-11-03T03:01:30.156Z,928.07
2017-11-03T03:01:49.691Z,928.1
2017-11-03T03:02:09.130Z,928.11
2017-11-03T03:02:28.502Z,928.09
2017-11-03T03:02:47.905Z,928.09
2017-11-03T03:03:06.733Z,928.1
2017-11-03T03:03:25.092Z,928.07
2017-11-03T03:03:43.940Z,928.13
2017-11-03T03:04:01.714Z,928.11
2017-11-03T03:04:20.018Z,928.13
2017-11-03T03:04:39.432Z,928.08
2017-11-03T03:04:57.781Z,928.01
2017-11-03T03:05:16.085Z,928.03
2017-11-03T03:05:34.413Z,928.09
2017-11-03T03:05:52.728Z,928.05
2017-11-03T03:06:12.138Z,928.05
2017-11-03T03:06:31.023Z,928.02
2017-11-03T03:06:49.340Z,928.04
2017-11-03T03:07:08.182Z,928.04
2017-11-03T03:07:25.983Z,928.06
2017-11-03T03:07:44.865Z,928.06
2017-11-03T03:08:03.210Z,928.06
2017-11-03T03:08:21.569Z,928.08
2017-11-03T03:08:40.436Z,928.07
2017-11-03T03:08:58.745Z,928.05
2017-11-03T03:09:17.602Z,928.09
2017-11-03T03:09:36.474Z,928.09
2017-11-03T03:09:54.245Z,928.12
2017-11-03T03:10:12.577Z,928.1
2017-11-03T03:10:31.989Z,928.1
2017-11-03T03:10:50.826Z,928.08
2017-11-03T03:11:08.596Z,928.11
2017-11-03T03:11:27.452Z,928.11
2017-11-03T03:11:46.842Z,928.09
2017-11-03T03:12:05.135Z,928.06
2017-11-03T03:12:23.995Z,928.06
2017-11-03T03:12:42.829Z,928.05
2017-11-03T03:13:01.667Z,928.08
2017-11-03T03:13:21.099Z,928.05
2017-11-03T03:13:40.479Z,928.04
2017-11-03T03:13:59.854Z,928.03
2017-11-03T03:14:19.282Z,928.04
2017-11-03T03:14:37.833Z,928.04
2017-11-03T03:14:57.221Z,928.06
2017-11-03T03:15:15.718Z,928.03
2017-11-03T03:15:34.899Z,928.02
2017-11-03T03:15:53.337Z,928.01
2017-11-03T03:16:12.698Z,928
2017-11-03T03:16:31.629Z,927.99
2017-11-03T03:16:49.938Z,928
2017-11-03T03:17:09.347Z,928
2017-11-03T03:17:28.197Z,927.99
2017-11-03T03:17:46.510Z,928.01
2017-11-03T03:18:05.547Z,927.95
2017-11-03T03:18:23.842Z,927.94
2017-11-03T03:18:42.696Z,927.98
2017-11-03T03:19:02.085Z,927.96
2017-11-03T03:19:20.980Z,927.95
2017-11-03T03:19:38.777Z,927.97
2017-11-03T03:19:57.644Z,927.99
2017-11-03T03:20:15.987Z,927.97
2017-11-03T03:20:34.339Z,927.95
2017-11-03T03:20:53.746Z,927.93
2017-11-03T03:21:13.122Z,927.99
2017-11-03T03:21:31.990Z,927.99
2017-11-03T03:21:50.832Z,927.99
2017-11-03T03:22:09.686Z,928.01
2017-11-03T03:22:28.024Z,928.01
2017-11-03T03:22:46.397Z,927.96
2017-11-03T03:23:05.266Z,928
2017-11-03T03:23:24.626Z,927.95
2017-11-03T03:23:44.013Z,928
2017-11-03T03:24:02.563Z,927.94
2017-11-03T03:24:20.888Z,927.95
2017-11-03T03:24:39.754Z,927.96
2017-11-03T03:24:58.615Z,927.96
2017-11-03T03:25:18.052Z,927.93
2017-11-03T03:25:37.437Z,927.94
2017-11-03T03:25:55.583Z,927.94
2017-11-03T03:26:15.064Z,927.91
2017-11-03T03:26:34.028Z,927.9
2017-11-03T03:26:53.415Z,927.93
2017-11-03T03:27:12.845Z,927.89
2017-11-03T03:27:31.682Z,927.97
2017-11-03T03:27:50.548Z,927.93
2017-11-03T03:28:08.831Z,927.93
2017-11-03T03:28:27.868Z,927.98
2017-11-03T03:28:46.725Z,927.99
2017-11-03T03:29:05.584Z,927.92
2017-11-03T03:29:24.450Z,927.97
2017-11-03T03:29:43.514Z,927.97
2017-11-03T03:30:01.830Z,927.96
2017-11-03T03:30:20.714Z,927.9
2017-11-03T03:30:39.591Z,927.91
2017-11-03T03:30:58.475Z,927.91
2017-11-03T03:31:17.335Z,927.88
2017-11-03T03:31:36.723Z,927.87
2017-11-03T03:31:55.773Z,927.91
2017-11-03T03:32:14.759Z,927.89
2017-11-03T03:32:34.353Z,927.86
2017-11-03T03:32:52.675Z,927.9
2017-11-03T03:33:11.584Z,927.93
2017-11-03T03:33:30.420Z,927.91
2017-11-03T03:33:49.819Z,927.91
2017-11-03T03:34:08.695Z,927.93
2017-11-03T03:34:28.083Z,927.9
2017-11-03T03:34:47.541Z,927.92
2017-11-03T03:35:07.170Z,927.92
2017-11-03T03:35:26.393Z,927.92
2017-11-03T03:35:46.609Z,927.91
2017-11-03T03:36:06.074Z,927.95
2017-11-03T03:36:26.074Z,927.95
2017-11-03T03:36:46.302Z,927.94
2017-11-03T03:37:06.471Z,927.95
2017-11-03T03:37:24.732Z,927.93
2017-11-03T03:37:44.685Z,927.9
2017-11-03T03:38:04.647Z,927.92
2017-11-03T03:38:24.493Z,927.93
2017-11-03T03:38:42.896Z,927.96
2017-11-03T03:39:02.477Z,927.89
2017-11-03T03:39:21.889Z,927.91
2017-11-03T03:39:41.301Z,927.9
2017-11-03T03:40:00.157Z,927.9
2017-11-03T03:40:19.020Z,927.87
2017-11-03T03:40:37.343Z,927.86
2017-11-03T03:40:56.176Z,927.9
2017-11-03T03:41:15.212Z,927.9
2017-11-03T03:41:33.584Z,927.89
2017-11-03T03:41:51.911Z,927.87
2017-11-03T03:42:10.749Z,927.78
2017-11-03T03:42:30.180Z,927.86
2017-11-03T03:42:49.624Z,927.86
2017-11-03T03:43:09.344Z,927.85
2017-11-03T03:43:28.882Z,927.89
2017-11-03T03:43:47.485Z,927.84
2017-11-03T03:44:07.533Z,927.82
2017-11-03T03:44:25.952Z,927.85
2017-11-03T03:44:44.274Z,927.88
2017-11-03T03:45:02.647Z,927.79
2017-11-03T03:45:22.067Z,927.79
2017-11-03T03:45:41.429Z,927.81
2017-11-03T03:46:00.289Z,927.84
2017-11-03T03:46:19.908Z,927.8
2017-11-03T03:46:38.752Z,927.81
2017-11-03T03:46:57.090Z,927.8
2017-11-03T03:47:16.506Z,927.8
2017-11-03T03:47:35.372Z,927.83
2017-11-03T03:47:54.229Z,927.8
2017-11-03T03:48:12.599Z,927.79
2017-11-03T03:48:30.923Z,927.8
2017-11-03T03:48:48.691Z,927.82
2017-11-03T03:49:07.564Z,927.8
2017-11-03T03:49:26.430Z,927.81
2017-11-03T03:49:45.278Z,927.84
2017-11-03T03:50:04.134Z,927.85
2017-11-03T03:50:23.008Z,927.84
2017-11-03T03:50:41.345Z,927.82
2017-11-03T03:51:00.752Z,927.81
2017-11-03T03:51:19.691Z,927.83
2017-11-03T03:51:38.006Z,927.85
2017-11-03T03:51:57.386Z,927.85
2017-11-03T03:52:16.546Z,927.85
2017-11-03T03:52:35.832Z,927.81
2017-11-03T03:52:56.139Z,927.84
2017-11-03T03:53:15.659Z,927.87
2017-11-03T03:53:35.452Z,927.87
2017-11-03T03:53:54.903Z,927.88
2017-11-03T03:54:13.204Z,927.89
2017-11-03T03:54:32.581Z,927.89
2017-11-03T03:54:50.877Z,927.88
2017-11-03T03:55:09.256Z,927.85
2017-11-03T03:55:28.678Z,927.9
2017-11-03T03:55:47.058Z,927.87
2017-11-03T03:56:05.971Z,927.9
2017-11-03T03:56:25.771Z,927.89
2017-11-03T03:56:45.211Z,927.91
2017-11-03T03:57:04.580Z,927.85
2017-11-03T03:57:24.008Z,927.89
2017-11-03T03:57:43.418Z,927.86
2017-11-03T03:58:02.265Z,927.88